createdAt,value
2022-12-31T00:00:46.886Z,94696.16
2022-12-31T00:01:43.521Z,94701.66
2022-12-31T00:02:40.221Z,94668.28
2022-12-31T00:03:38.755Z,94698.50
2022-12-31T00:04:35.427Z,94710.22
2022-12-31T00:05:33.409Z,94703.22
2022-12-31T00:06:29.993Z,94707.16
2022-12-31T00:07:26.579Z,94692.56
2022-12-31T00:08:23.140Z,94704.56
2022-12-31T00:09:19.699Z,94703.44
2022-12-31T00:10:16.324Z,94704.22
2022-12-31T00:11:13.859Z,94710.84
2022-12-31T00:12:10.576Z,94669.81
2022-12-31T00:13:12.039Z,94672.84
2022-12-31T00:14:08.683Z,94657.75
2022-12-31T00:15:05.903Z,94705.22
2022-12-31T00:16:12.445Z,94706.84
2022-12-31T00:17:09.284Z,94712.31
2022-12-31T00:18:06.190Z,94687.78
2022-12-31T00:19:04.202Z,94680.88
2022-12-31T00:20:00.855Z,94711.69
2022-12-31T00:20:57.433Z,94717.66
2022-12-31T00:21:54.050Z,94719.16
2022-12-31T00:22:50.771Z,94712.16
2022-12-31T00:23:47.859Z,94722.28
2022-12-31T00:24:44.542Z,94713.97
2022-12-31T00:25:41.136Z,94721.84
2022-12-31T00:26:37.780Z,94708.06
2022-12-31T00:27:34.408Z,94715.72
2022-12-31T00:28:31.517Z,94713.78
2022-12-31T00:29:28.185Z,94720.44
2022-12-31T00:30:24.833Z,94713.94
2022-12-31T00:31:24.496Z,94705.97
2022-12-31T00:32:21.094Z,94722.91
2022-12-31T00:33:17.755Z,94728.78
2022-12-31T00:34:14.285Z,94695.13
2022-12-31T00:35:10.827Z,94717.63
2022-12-31T00:36:12.190Z,94722.28
2022-12-31T00:37:08.845Z,94719.66
2022-12-31T00:38:05.429Z,94722.72
2022-12-31T00:39:04.142Z,94724.41
2022-12-31T00:40:00.717Z,94725.81
2022-12-31T00:40:57.279Z,94690.22
2022-12-31T00:41:54.010Z,94727.56
2022-12-31T00:42:50.597Z,94728.75
2022-12-31T00:43:48.284Z,94721.44
2022-12-31T00:44:44.917Z,94688.63
2022-12-31T00:45:41.554Z,94734.03
2022-12-31T00:47:34.041Z,94736.19
2022-12-31T00:48:31.106Z,94733.16
2022-12-31T00:49:27.651Z,94736.97
2022-12-31T00:50:24.331Z,94737.56
2022-12-31T00:51:23.503Z,94728.13
2022-12-31T00:52:20.173Z,94734.97
2022-12-31T00:53:16.766Z,94737.00
2022-12-31T00:54:13.667Z,94692.19
2022-12-31T00:55:10.278Z,94735.25
2022-12-31T00:56:15.726Z,94734.72
2022-12-31T00:57:12.471Z,94742.38
2022-12-31T00:58:09.257Z,94724.75
2022-12-31T00:59:06.177Z,94737.34
2022-12-31T01:00:02.886Z,94729.84
2022-12-31T01:01:07.596Z,94737.53
2022-12-31T01:02:04.487Z,94746.50
2022-12-31T01:03:01.703Z,94739.50
2022-12-31T01:04:02.758Z,94738.41
2022-12-31T01:04:59.375Z,94741.53
2022-12-31T01:05:59.261Z,94745.19
2022-12-31T01:06:55.839Z,94746.66
2022-12-31T01:07:52.429Z,94738.59
2022-12-31T01:08:50.412Z,94746.97
2022-12-31T01:09:46.962Z,94745.75
2022-12-31T01:11:07.560Z,94748.56
2022-12-31T01:12:04.392Z,94744.25
2022-12-31T01:13:00.959Z,94753.13
2022-12-31T01:14:10.635Z,94745.00
2022-12-31T01:15:07.526Z,94729.34
2022-12-31T01:16:11.811Z,94704.38
2022-12-31T01:17:08.512Z,94747.69
2022-12-31T01:18:07.466Z,94752.56
2022-12-31T01:19:07.033Z,94754.59
2022-12-31T01:20:03.709Z,94742.31
2022-12-31T01:21:03.348Z,94720.03
2022-12-31T01:21:59.955Z,94740.44
2022-12-31T01:22:56.533Z,94742.19
2022-12-31T01:23:53.152Z,94742.00
2022-12-31T01:24:49.885Z,94738.09
2022-12-31T01:25:46.471Z,94736.50
2022-12-31T01:26:43.935Z,94737.53
2022-12-31T01:27:40.524Z,94732.75
2022-12-31T01:28:37.437Z,94745.22
2022-12-31T01:29:34.138Z,94736.66
2022-12-31T01:30:30.861Z,94740.16
2022-12-31T01:31:28.293Z,94732.41
2022-12-31T01:32:24.919Z,94742.59
2022-12-31T01:33:21.707Z,94735.75
2022-12-31T01:34:18.366Z,94746.06
2022-12-31T01:35:14.990Z,94743.28
2022-12-31T01:36:16.854Z,94746.59
2022-12-31T01:37:15.547Z,94752.63
2022-12-31T01:38:12.149Z,94724.94
2022-12-31T01:39:09.522Z,94745.09
2022-12-31T01:40:06.687Z,94754.66
2022-12-31T01:41:03.994Z,94729.50
2022-12-31T01:42:00.602Z,94747.31
2022-12-31T01:42:58.464Z,94707.41
2022-12-31T01:43:58.798Z,94748.13
2022-12-31T01:44:56.406Z,94733.66
2022-12-31T01:45:54.694Z,94762.84
2022-12-31T01:46:56.368Z,94726.41
2022-12-31T01:47:58.101Z,94739.03
2022-12-31T01:48:59.244Z,94750.91
2022-12-31T01:50:03.197Z,94716.22
2022-12-31T01:50:59.873Z,94731.75
2022-12-31T01:52:17.934Z,94754.19
2022-12-31T01:53:16.185Z,94755.50
2022-12-31T01:54:16.166Z,94752.50
2022-12-31T01:55:16.551Z,94677.72
2022-12-31T01:56:13.350Z,94752.13
2022-12-31T01:57:11.352Z,94735.81
2022-12-31T01:58:28.627Z,94750.63
2022-12-31T01:59:27.603Z,94752.91
2022-12-31T02:00:24.494Z,94754.13
2022-12-31T02:01:31.077Z,94750.13
2022-12-31T02:02:28.169Z,94758.56
2022-12-31T02:03:27.344Z,94762.06
2022-12-31T02:04:26.602Z,94762.91
2022-12-31T02:05:32.582Z,94761.69
2022-12-31T02:06:35.118Z,94764.94
2022-12-31T02:07:31.572Z,94765.41
2022-12-31T02:08:28.256Z,94771.16
2022-12-31T02:09:24.944Z,94766.69
2022-12-31T02:10:21.553Z,94766.19
2022-12-31T02:11:22.793Z,94771.91
2022-12-31T02:12:19.708Z,94773.47
2022-12-31T02:13:16.533Z,94762.13
2022-12-31T02:14:16.210Z,94768.47
2022-12-31T02:15:12.948Z,94769.59
2022-12-31T02:16:20.551Z,94774.13
2022-12-31T02:17:37.875Z,94727.75
2022-12-31T02:18:49.957Z,94770.78
2022-12-31T02:20:05.502Z,94775.88
2022-12-31T02:21:15.993Z,94769.31
2022-12-31T02:22:57.448Z,94769.19
2022-12-31T02:24:25.098Z,94776.28
2022-12-31T02:25:36.728Z,94773.13
2022-12-31T02:26:51.996Z,94779.34
2022-12-31T02:27:56.875Z,94781.47
2022-12-31T02:29:08.780Z,94777.38
2022-12-31T02:30:05.422Z,94781.97
2022-12-31T02:31:12.334Z,94784.44
2022-12-31T02:32:24.846Z,94751.31
2022-12-31T02:33:43.805Z,94782.28
2022-12-31T02:34:47.395Z,94777.69
2022-12-31T02:35:58.138Z,94742.09
2022-12-31T02:36:57.784Z,94778.34
2022-12-31T02:38:01.531Z,94786.75
2022-12-31T02:38:59.488Z,94778.63
2022-12-31T02:39:57.608Z,94727.16
2022-12-31T02:40:54.982Z,94783.66
2022-12-31T02:41:52.486Z,94792.41
2022-12-31T02:42:55.118Z,94775.13
2022-12-31T02:43:52.335Z,94788.25
2022-12-31T02:44:49.070Z,94761.44
2022-12-31T02:45:51.184Z,94794.66
2022-12-31T02:47:23.237Z,94793.88
2022-12-31T02:48:52.619Z,94792.59
2022-12-31T02:50:13.687Z,94786.72
2022-12-31T02:51:16.566Z,94718.63
2022-12-31T02:52:25.697Z,94786.16
2022-12-31T02:54:00.391Z,94786.94
2022-12-31T02:55:11.662Z,94785.13
2022-12-31T02:56:22.802Z,94784.88
2022-12-31T02:57:28.375Z,94784.72
2022-12-31T02:59:12.885Z,94780.16
2022-12-31T03:00:32.173Z,94784.63
2022-12-31T03:01:53.784Z,94777.56
2022-12-31T03:02:52.706Z,94782.25
2022-12-31T03:04:09.313Z,94785.94
2022-12-31T03:05:06.968Z,94769.56
2022-12-31T03:06:04.837Z,94786.41
2022-12-31T03:07:14.819Z,94735.13
2022-12-31T03:08:11.478Z,94781.56
2022-12-31T03:09:13.711Z,94780.78
2022-12-31T03:10:11.293Z,94778.09
2022-12-31T03:11:27.833Z,94784.28
2022-12-31T03:12:45.736Z,94772.47
2022-12-31T03:13:42.279Z,94740.50
2022-12-31T03:14:39.190Z,94775.81
2022-12-31T03:15:35.848Z,94772.63
2022-12-31T03:16:32.845Z,94766.91
2022-12-31T03:17:29.596Z,94696.38
2022-12-31T03:18:46.114Z,94769.91
2022-12-31T03:20:01.303Z,94756.09
2022-12-31T03:21:16.407Z,94760.84
2022-12-31T03:22:28.555Z,94754.22
2022-12-31T03:23:31.301Z,94770.56
2022-12-31T03:24:46.674Z,94752.97
2022-12-31T03:25:44.124Z,94732.75
2022-12-31T03:26:40.778Z,94748.84
2022-12-31T03:27:37.424Z,94770.81
2022-12-31T03:28:34.093Z,94749.72
2022-12-31T03:29:30.721Z,94769.19
2022-12-31T03:30:28.202Z,94771.13
2022-12-31T03:31:24.891Z,94778.38
2022-12-31T03:32:21.480Z,94779.00
2022-12-31T03:33:18.337Z,94768.44
2022-12-31T03:34:15.721Z,94768.72
2022-12-31T03:35:14.136Z,94775.19
2022-12-31T03:36:14.095Z,94770.47
2022-12-31T03:37:10.653Z,94775.25
2022-12-31T03:38:07.839Z,94757.66
2022-12-31T03:39:04.843Z,94769.97
2022-12-31T03:40:01.483Z,94726.84
2022-12-31T03:40:58.128Z,94775.69
2022-12-31T03:41:54.771Z,94718.09
2022-12-31T03:42:51.479Z,94758.78
2022-12-31T03:43:48.101Z,94774.38
2022-12-31T03:44:44.708Z,94779.22
2022-12-31T03:45:41.908Z,94770.72
2022-12-31T03:46:38.563Z,94776.03
2022-12-31T03:47:35.191Z,94751.66
2022-12-31T03:48:31.849Z,94776.22
2022-12-31T03:49:28.577Z,94782.91
2022-12-31T03:50:25.280Z,94778.91
2022-12-31T03:51:21.905Z,94787.28
2022-12-31T03:52:18.602Z,94781.84
2022-12-31T03:53:15.291Z,94770.28
2022-12-31T03:54:12.073Z,94787.13
2022-12-31T03:55:10.318Z,94789.56
2022-12-31T03:56:07.269Z,94785.09
2022-12-31T03:57:03.995Z,94792.47
2022-12-31T03:58:00.628Z,94759.38
2022-12-31T03:58:57.225Z,94794.91
2022-12-31T03:59:53.869Z,94793.28
2022-12-31T04:00:51.073Z,94794.03
2022-12-31T04:01:47.836Z,94796.50
2022-12-31T04:02:45.073Z,94798.75
2022-12-31T04:03:41.698Z,94796.72
2022-12-31T04:04:38.346Z,94799.66
2022-12-31T04:05:34.986Z,94777.03
2022-12-31T04:06:31.650Z,94777.75
2022-12-31T04:07:28.357Z,94796.16
2022-12-31T04:08:25.178Z,94799.81
2022-12-31T04:09:22.039Z,94805.59
2022-12-31T04:10:19.711Z,94806.31
2022-12-31T04:11:20.779Z,94801.56
2022-12-31T04:12:17.812Z,94792.75
2022-12-31T04:13:14.503Z,94804.56
2022-12-31T04:14:11.818Z,94809.09
2022-12-31T04:15:15.121Z,94798.88
2022-12-31T04:16:11.729Z,94799.13
2022-12-31T04:17:08.427Z,94802.75
2022-12-31T04:18:05.099Z,94808.81
2022-12-31T04:19:01.734Z,94762.56
2022-12-31T04:19:58.596Z,94808.38
2022-12-31T04:20:55.287Z,94796.38
2022-12-31T04:21:52.130Z,94806.63
2022-12-31T04:22:48.686Z,94811.88
2022-12-31T04:23:45.305Z,94807.94
2022-12-31T04:24:43.089Z,94809.19
2022-12-31T04:25:39.781Z,94803.28
2022-12-31T04:26:37.271Z,94811.03
2022-12-31T04:27:34.059Z,94804.75
2022-12-31T04:28:30.723Z,94807.31
2022-12-31T04:29:27.553Z,94796.31
2022-12-31T04:30:24.180Z,94800.22
2022-12-31T04:31:20.931Z,94804.34
2022-12-31T04:32:17.670Z,94799.84
2022-12-31T04:33:14.287Z,94767.88
2022-12-31T04:34:10.947Z,94807.78
2022-12-31T04:35:08.392Z,94783.66
2022-12-31T04:36:07.212Z,94793.41
2022-12-31T04:37:04.248Z,94813.00
2022-12-31T04:38:00.905Z,94808.59
2022-12-31T04:38:57.535Z,94813.94
2022-12-31T04:39:54.172Z,94805.72
2022-12-31T04:41:09.452Z,94811.59
2022-12-31T04:42:06.080Z,94811.09
2022-12-31T04:43:02.662Z,94811.47
2022-12-31T04:44:00.410Z,94789.78
2022-12-31T04:44:56.975Z,94826.53
2022-12-31T04:45:53.597Z,94817.94
2022-12-31T04:46:50.255Z,94814.53
2022-12-31T04:47:46.801Z,94822.41
2022-12-31T04:48:43.969Z,94821.38
2022-12-31T04:49:40.622Z,94828.00
2022-12-31T04:50:37.304Z,94826.66
2022-12-31T04:51:34.309Z,94833.63
2022-12-31T04:52:30.990Z,94825.03
2022-12-31T04:53:28.228Z,94829.50
2022-12-31T04:54:24.850Z,94779.81
2022-12-31T04:55:21.461Z,94831.09
2022-12-31T04:56:19.021Z,94826.34
2022-12-31T04:57:15.568Z,94820.03
2022-12-31T04:58:12.111Z,94835.28
2022-12-31T04:59:10.087Z,94836.59
2022-12-31T05:00:08.076Z,94832.09
2022-12-31T05:01:05.719Z,94834.69
2022-12-31T05:02:02.651Z,94813.44
2022-12-31T05:02:59.470Z,94780.06
2022-12-31T05:03:56.070Z,94834.56
2022-12-31T05:04:52.669Z,94825.88
2022-12-31T05:05:50.112Z,94825.59
2022-12-31T05:06:46.718Z,94839.31
2022-12-31T05:07:43.307Z,94847.25
2022-12-31T05:08:40.738Z,94845.41
2022-12-31T05:09:38.417Z,94845.91
2022-12-31T05:10:35.263Z,94827.53
2022-12-31T05:11:31.998Z,94842.28
2022-12-31T05:12:28.862Z,94844.38
2022-12-31T05:13:31.187Z,94852.84
2022-12-31T05:14:29.819Z,94851.22
2022-12-31T05:15:26.453Z,94857.00
2022-12-31T05:16:23.192Z,94852.44
2022-12-31T05:17:20.844Z,94854.34
2022-12-31T05:18:18.231Z,94856.81
2022-12-31T05:19:14.989Z,94852.31
2022-12-31T05:20:11.618Z,94848.09
2022-12-31T05:21:08.452Z,94860.72
2022-12-31T05:22:23.707Z,94860.22
2022-12-31T05:23:20.378Z,94860.59
2022-12-31T05:24:16.989Z,94863.59
2022-12-31T05:25:13.737Z,94870.75
2022-12-31T05:26:10.421Z,94867.06
2022-12-31T05:27:07.125Z,94868.59
2022-12-31T05:28:03.792Z,94829.66
2022-12-31T05:29:00.621Z,94863.38
2022-12-31T05:29:57.311Z,94870.47
2022-12-31T05:30:54.281Z,94871.56
2022-12-31T05:31:50.892Z,94879.19
2022-12-31T05:32:47.599Z,94872.66
2022-12-31T05:33:44.430Z,94855.06
2022-12-31T05:34:41.123Z,94671.06
2022-12-31T05:35:37.808Z,94870.59
2022-12-31T05:36:34.417Z,94864.78
2022-12-31T05:37:31.971Z,94764.88
2022-12-31T05:38:28.644Z,94858.19
2022-12-31T05:39:25.204Z,94868.69
2022-12-31T05:40:22.157Z,94813.69
2022-12-31T05:41:18.827Z,94872.31
2022-12-31T05:42:15.479Z,94843.41
2022-12-31T05:43:12.057Z,94870.72
2022-12-31T05:44:10.710Z,94856.53
2022-12-31T05:45:08.043Z,94871.50
2022-12-31T05:46:05.714Z,94871.47
2022-12-31T05:47:02.330Z,94876.44
2022-12-31T05:47:59.105Z,94873.03
2022-12-31T05:48:55.712Z,94876.28
2022-12-31T05:49:52.244Z,94863.94
2022-12-31T05:50:49.922Z,94869.69
2022-12-31T05:51:46.601Z,94870.69
2022-12-31T05:52:47.624Z,94886.53
2022-12-31T05:53:44.600Z,94870.31
2022-12-31T05:54:41.182Z,94882.13
2022-12-31T05:55:37.797Z,94883.50
2022-12-31T05:56:34.458Z,94880.28
2022-12-31T05:57:31.054Z,94836.09
2022-12-31T05:58:27.790Z,94880.53
2022-12-31T05:59:25.021Z,94885.03
2022-12-31T06:00:21.635Z,94884.47
2022-12-31T06:01:18.417Z,94887.38
2022-12-31T06:02:15.194Z,94890.50
2022-12-31T06:03:12.085Z,94892.28
2022-12-31T06:04:08.867Z,94887.47
2022-12-31T06:05:06.394Z,94863.78
2022-12-31T06:06:03.096Z,94892.16
2022-12-31T06:06:59.690Z,94893.84
2022-12-31T06:07:56.272Z,94892.50
2022-12-31T06:08:53.111Z,94896.28
2022-12-31T06:09:49.787Z,94892.56
2022-12-31T06:10:46.422Z,94885.97
2022-12-31T06:11:43.279Z,94889.06
2022-12-31T06:12:39.935Z,94889.28
2022-12-31T06:13:36.631Z,94889.50
2022-12-31T06:14:33.381Z,94887.41
2022-12-31T06:15:30.330Z,94857.22
2022-12-31T06:16:27.325Z,94864.41
2022-12-31T06:17:23.997Z,94842.50
2022-12-31T06:18:20.671Z,94887.16
2022-12-31T06:19:17.532Z,94887.66
2022-12-31T06:20:14.119Z,94812.00
2022-12-31T06:21:10.672Z,94891.88
2022-12-31T06:22:07.291Z,94874.69
2022-12-31T06:23:04.382Z,94875.66
2022-12-31T06:24:01.245Z,94887.34
2022-12-31T06:24:57.800Z,94875.03
2022-12-31T06:25:54.433Z,94891.38
2022-12-31T06:26:51.114Z,94894.28
2022-12-31T06:27:47.737Z,94888.63
2022-12-31T06:28:44.356Z,94888.88
2022-12-31T06:29:41.018Z,94869.25
2022-12-31T06:30:37.642Z,94895.44
2022-12-31T06:31:34.524Z,94897.41
2022-12-31T06:32:31.199Z,94908.72
2022-12-31T06:33:28.580Z,94906.53
2022-12-31T06:34:25.199Z,94908.88
2022-12-31T06:35:22.196Z,94908.91
2022-12-31T06:36:19.250Z,94916.25
2022-12-31T06:37:15.885Z,94902.09
2022-12-31T06:38:12.507Z,94916.72
2022-12-31T06:39:09.081Z,94908.84
2022-12-31T06:40:06.433Z,94916.03
2022-12-31T06:41:07.747Z,94911.88
2022-12-31T06:42:04.879Z,94921.63
2022-12-31T06:43:01.432Z,94920.84
2022-12-31T06:43:58.172Z,94925.03
2022-12-31T06:44:54.688Z,94924.13
2022-12-31T06:45:51.375Z,94923.56
2022-12-31T06:46:49.877Z,94924.47
2022-12-31T06:47:46.621Z,94915.16
2022-12-31T06:48:45.004Z,94927.09
2022-12-31T06:49:41.571Z,94927.56
2022-12-31T06:50:39.438Z,94905.53
2022-12-31T06:51:35.990Z,94924.72
2022-12-31T06:52:32.910Z,94923.41
2022-12-31T06:53:29.501Z,94894.13
2022-12-31T06:54:26.473Z,94926.00
2022-12-31T06:55:23.433Z,94925.25
2022-12-31T06:56:26.622Z,94931.56
2022-12-31T06:57:26.609Z,94925.88
2022-12-31T06:58:23.815Z,94935.13
2022-12-31T06:59:27.404Z,94921.91
2022-12-31T07:00:24.274Z,94941.50
2022-12-31T07:01:42.630Z,94941.09
2022-12-31T07:03:17.742Z,94939.47
2022-12-31T07:04:17.397Z,94934.69
2022-12-31T07:05:46.596Z,94940.13
2022-12-31T07:07:00.423Z,94935.63
2022-12-31T07:08:32.398Z,94943.56
2022-12-31T07:09:56.049Z,94944.88
2022-12-31T07:11:26.864Z,94946.44
2022-12-31T07:12:57.474Z,94946.50
2022-12-31T07:14:09.751Z,94941.84
2022-12-31T07:15:13.126Z,94949.41
2022-12-31T07:16:30.847Z,94946.63
2022-12-31T07:17:55.360Z,94949.19
2022-12-31T07:19:12.431Z,94952.31
2022-12-31T07:20:15.312Z,94958.00
2022-12-31T07:21:14.920Z,94913.41
2022-12-31T07:22:15.285Z,94955.28
2022-12-31T07:23:12.215Z,94933.31
2022-12-31T07:24:10.663Z,94959.09
2022-12-31T07:25:08.003Z,94963.41
2022-12-31T07:26:43.011Z,94951.56
2022-12-31T07:28:04.478Z,94962.97
2022-12-31T07:29:25.645Z,94961.88
2022-12-31T07:30:33.194Z,94966.66
2022-12-31T07:32:07.142Z,94967.13
2022-12-31T07:33:40.896Z,94967.97
2022-12-31T07:34:40.307Z,94965.97
2022-12-31T07:36:14.195Z,94967.75
2022-12-31T07:37:27.608Z,94971.22
2022-12-31T07:38:57.307Z,94976.97
2022-12-31T07:40:15.904Z,94971.16
2022-12-31T07:41:18.193Z,94972.00
2022-12-31T07:43:22.641Z,94977.88
2022-12-31T07:44:30.158Z,94974.13
2022-12-31T07:45:42.359Z,94969.72
2022-12-31T07:46:51.293Z,94969.03
2022-12-31T07:47:48.426Z,94937.41
2022-12-31T07:48:45.610Z,94983.78
2022-12-31T07:49:44.125Z,94979.13
2022-12-31T07:50:40.983Z,94981.88
2022-12-31T07:51:38.111Z,94978.94
2022-12-31T07:52:35.108Z,94970.84
2022-12-31T07:53:32.056Z,94974.00
2022-12-31T07:54:28.651Z,94982.31
2022-12-31T07:55:25.764Z,94980.63
2022-12-31T07:56:22.455Z,94975.31
2022-12-31T07:57:20.804Z,94956.63
2022-12-31T07:58:53.466Z,94979.19
2022-12-31T08:00:06.956Z,94981.94
2022-12-31T08:01:04.397Z,94980.66
2022-12-31T08:02:22.873Z,94949.00
2022-12-31T08:04:00.216Z,94978.94
2022-12-31T08:05:12.066Z,94980.78
2022-12-31T08:06:08.866Z,94982.84
2022-12-31T08:07:31.777Z,94983.44
2022-12-31T08:08:50.123Z,94982.25
2022-12-31T08:09:58.737Z,94984.22
2022-12-31T08:11:18.383Z,94987.56
2022-12-31T08:12:15.786Z,94991.69
2022-12-31T08:13:13.087Z,94919.41
2022-12-31T08:14:13.280Z,94985.50
2022-12-31T08:15:18.443Z,94984.28
2022-12-31T08:16:15.481Z,94983.31
2022-12-31T08:17:17.128Z,94987.38
2022-12-31T08:18:14.130Z,94969.63
2022-12-31T08:19:18.900Z,94985.88
2022-12-31T08:20:17.513Z,94988.19
2022-12-31T08:21:43.191Z,94990.16
2022-12-31T08:22:55.067Z,94991.00
2022-12-31T08:24:19.967Z,94992.41
2022-12-31T08:25:38.129Z,94995.75
2022-12-31T08:26:53.347Z,94998.44
2022-12-31T08:28:14.388Z,94996.31
2022-12-31T08:29:11.119Z,94998.81
2022-12-31T08:30:21.306Z,94995.03
2022-12-31T08:31:30.928Z,94999.28
2022-12-31T08:33:12.909Z,95000.69
2022-12-31T08:34:31.034Z,94988.91
2022-12-31T08:36:41.423Z,94999.72
2022-12-31T08:37:46.947Z,94998.75
2022-12-31T08:39:06.327Z,94995.59
2022-12-31T08:40:12.359Z,95002.00
2022-12-31T08:41:18.440Z,94995.72
2022-12-31T08:42:48.108Z,94991.88
2022-12-31T08:43:48.238Z,94994.28
2022-12-31T08:45:00.707Z,94994.88
2022-12-31T08:45:58.596Z,94981.41
2022-12-31T08:47:07.473Z,94992.16
2022-12-31T08:48:32.890Z,94993.81
2022-12-31T08:49:32.580Z,94991.94
2022-12-31T08:50:29.994Z,94992.53
2022-12-31T08:51:27.229Z,94992.66
2022-12-31T08:52:26.369Z,94966.19
2022-12-31T08:53:23.288Z,94997.66
2022-12-31T08:54:20.186Z,94964.00
2022-12-31T08:55:18.876Z,94992.53
2022-12-31T08:56:26.662Z,94994.97
2022-12-31T08:57:42.287Z,94988.69
2022-12-31T08:59:08.512Z,94975.50
2022-12-31T09:00:18.807Z,94955.53
2022-12-31T09:01:21.749Z,94987.94
2022-12-31T09:02:37.090Z,94991.63
2022-12-31T09:03:39.472Z,94990.66
2022-12-31T09:04:55.271Z,94987.31
2022-12-31T09:06:16.219Z,94992.19
2022-12-31T09:07:14.227Z,94993.09
2022-12-31T09:08:23.505Z,94954.06
2022-12-31T09:09:33.084Z,94981.03
2022-12-31T09:10:34.043Z,94983.53
2022-12-31T09:12:06.085Z,94977.72
2022-12-31T09:13:21.687Z,94980.78
2022-12-31T09:14:40.178Z,94983.13
2022-12-31T09:15:43.877Z,94987.03
2022-12-31T09:16:40.511Z,94981.34
2022-12-31T09:17:44.956Z,94979.41
2022-12-31T09:18:43.081Z,94990.88
2022-12-31T09:19:39.651Z,94979.75
2022-12-31T09:20:44.713Z,94978.19
2022-12-31T09:21:45.241Z,94969.13
2022-12-31T09:22:42.121Z,94962.25
2022-12-31T09:23:39.743Z,94969.47
2022-12-31T09:24:36.665Z,94971.53
2022-12-31T09:25:33.693Z,94966.94
2022-12-31T09:26:39.405Z,94969.53
2022-12-31T09:27:51.854Z,94945.38
2022-12-31T09:28:51.077Z,94966.56
2022-12-31T09:30:01.720Z,94968.59
2022-12-31T09:31:28.100Z,94968.78
2022-12-31T09:32:30.864Z,94961.03
2022-12-31T09:33:40.400Z,94953.66
2022-12-31T09:34:54.136Z,94957.88
2022-12-31T09:36:01.644Z,94962.56
2022-12-31T09:37:05.380Z,94928.22
2022-12-31T09:38:15.142Z,94918.97
2022-12-31T09:39:39.798Z,94956.75
2022-12-31T09:41:15.110Z,94950.47
2022-12-31T09:42:26.802Z,94945.59
2022-12-31T09:43:42.103Z,94946.72
2022-12-31T09:44:54.286Z,94945.50
2022-12-31T09:46:03.600Z,94943.72
2022-12-31T09:47:27.821Z,94945.06
2022-12-31T09:48:46.171Z,94939.19
2022-12-31T09:50:31.574Z,94942.03
2022-12-31T09:51:30.189Z,94936.38
2022-12-31T09:52:57.596Z,94931.69
2022-12-31T09:54:15.699Z,94938.66
2022-12-31T09:55:12.274Z,94932.81
2022-12-31T09:56:26.212Z,94931.13
2022-12-31T09:57:25.635Z,94933.53
2022-12-31T09:58:41.863Z,94918.19
2022-12-31T09:59:51.454Z,94895.88
2022-12-31T10:01:01.350Z,94914.22
2022-12-31T10:02:18.537Z,94900.34
2022-12-31T10:03:37.063Z,94921.91
2022-12-31T10:04:39.982Z,94921.06
2022-12-31T10:05:48.498Z,94920.44
2022-12-31T10:07:15.661Z,94923.59
2022-12-31T10:08:49.849Z,94915.25
2022-12-31T10:10:21.763Z,94917.63
2022-12-31T10:11:39.626Z,94916.88
2022-12-31T10:13:03.625Z,94918.59
2022-12-31T10:14:03.171Z,94917.50
2022-12-31T10:15:23.969Z,94912.31
2022-12-31T10:16:43.125Z,94902.28
2022-12-31T10:18:04.002Z,94907.59
2022-12-31T10:19:12.730Z,94905.16
2022-12-31T10:20:37.758Z,94901.59
2022-12-31T10:22:08.155Z,94902.09
2022-12-31T10:23:26.141Z,94899.72
2022-12-31T10:24:50.437Z,94899.97
2022-12-31T10:25:49.869Z,94899.47
2022-12-31T10:27:01.849Z,94895.88
2022-12-31T10:28:14.262Z,94900.34
2022-12-31T10:29:19.568Z,94902.53
2022-12-31T10:30:19.349Z,94895.66
2022-12-31T10:31:45.420Z,94902.41
2022-12-31T10:32:53.874Z,94897.59
2022-12-31T10:34:26.807Z,94909.94
2022-12-31T10:35:23.483Z,94909.00
2022-12-31T10:36:47.187Z,94905.09
2022-12-31T10:37:56.938Z,94904.59
2022-12-31T10:39:24.276Z,94892.31
2022-12-31T10:40:46.176Z,94895.81
2022-12-31T10:41:49.126Z,94898.63
2022-12-31T10:42:59.115Z,94873.22
2022-12-31T10:44:19.973Z,94895.69
2022-12-31T10:45:38.305Z,94894.69
2022-12-31T10:47:10.759Z,94884.19
2022-12-31T10:48:21.493Z,94884.03
2022-12-31T10:49:51.807Z,94895.31
2022-12-31T10:50:57.468Z,94887.78
2022-12-31T10:51:54.066Z,94893.41
2022-12-31T10:53:29.221Z,94890.31
2022-12-31T10:54:53.497Z,94897.31
2022-12-31T10:55:59.102Z,94893.09
2022-12-31T10:57:13.903Z,94888.44
2022-12-31T10:58:41.483Z,94895.78
2022-12-31T10:59:56.630Z,94891.72
2022-12-31T11:00:58.088Z,94893.81
2022-12-31T11:02:11.938Z,94855.63
2022-12-31T11:03:36.599Z,94893.19
2022-12-31T11:05:07.989Z,94885.28
2022-12-31T11:06:41.384Z,94872.44
2022-12-31T11:07:49.804Z,94888.38
2022-12-31T11:09:07.421Z,94886.84
2022-12-31T11:10:41.354Z,94884.41
2022-12-31T11:12:08.415Z,94882.53
2022-12-31T11:13:29.704Z,94879.16
2022-12-31T11:14:44.323Z,94872.19
2022-12-31T11:15:50.087Z,94876.53
2022-12-31T11:17:19.545Z,94873.94
2022-12-31T11:18:38.499Z,94880.38
2022-12-31T11:20:07.822Z,94867.94
2022-12-31T11:21:12.537Z,94866.69
2022-12-31T11:22:24.267Z,94865.19
2022-12-31T11:23:35.577Z,94869.78
2022-12-31T11:24:41.008Z,94863.75
2022-12-31T11:26:25.198Z,94866.03
2022-12-31T11:27:36.942Z,94871.88
2022-12-31T11:28:45.173Z,94871.25
2022-12-31T11:30:00.473Z,94876.69
2022-12-31T11:31:20.120Z,94871.28
2022-12-31T11:32:29.001Z,94871.94
2022-12-31T11:33:31.680Z,94861.88
2022-12-31T11:35:03.882Z,94866.28
2022-12-31T11:36:08.864Z,94864.78
2022-12-31T11:37:40.652Z,94859.44
2022-12-31T11:38:51.616Z,94861.31
2022-12-31T11:40:26.913Z,94859.56
2022-12-31T11:41:58.991Z,94857.34
2022-12-31T11:42:58.875Z,94854.13
2022-12-31T11:44:16.441Z,94828.31
2022-12-31T11:45:31.616Z,94857.00
2022-12-31T11:46:57.127Z,94857.19
2022-12-31T11:48:31.621Z,94858.69
2022-12-31T11:49:59.377Z,94857.03
2022-12-31T11:51:29.409Z,94864.19
2022-12-31T11:52:51.074Z,94853.69
2022-12-31T11:54:25.364Z,94853.19
2022-12-31T11:55:27.617Z,94863.47
2022-12-31T11:56:28.416Z,94818.09
2022-12-31T11:57:34.019Z,94862.59
2022-12-31T11:58:31.314Z,94854.91
2022-12-31T11:59:27.973Z,94858.56
2022-12-31T12:00:27.010Z,94855.50
2022-12-31T12:01:35.950Z,94864.53
2022-12-31T12:02:37.109Z,94860.38
2022-12-31T12:03:38.661Z,94869.78
2022-12-31T12:04:35.434Z,94865.75
2022-12-31T12:05:33.836Z,94867.25
2022-12-31T12:06:32.915Z,94840.31
2022-12-31T12:07:31.768Z,94828.00
2022-12-31T12:08:31.971Z,94846.00
2022-12-31T12:09:32.239Z,94865.81
2022-12-31T12:10:36.468Z,94870.13
2022-12-31T12:11:39.173Z,94872.06
2022-12-31T12:12:40.497Z,94871.63
2022-12-31T12:13:37.096Z,94865.69
2022-12-31T12:14:36.039Z,94871.56
2022-12-31T12:15:35.512Z,94879.66
2022-12-31T12:16:32.244Z,94875.44
2022-12-31T12:17:34.342Z,94875.75
2022-12-31T12:18:41.108Z,94871.09
2022-12-31T12:19:46.564Z,94875.34
2022-12-31T12:20:46.354Z,94871.19
2022-12-31T12:21:47.853Z,94867.00
2022-12-31T12:22:53.214Z,94865.31
2022-12-31T12:24:19.399Z,94874.84
2022-12-31T12:25:20.625Z,94872.34
2022-12-31T12:26:38.672Z,94866.34
2022-12-31T12:27:36.435Z,94870.06
2022-12-31T12:28:46.110Z,94820.50
2022-12-31T12:29:42.759Z,94800.00
2022-12-31T12:30:41.402Z,94872.53
2022-12-31T12:31:38.842Z,94842.66
2022-12-31T12:32:35.824Z,94871.16
2022-12-31T12:33:46.395Z,94863.22
2022-12-31T12:34:49.329Z,94839.59
2022-12-31T12:35:47.638Z,94863.84
2022-12-31T12:36:47.853Z,94865.19
2022-12-31T12:37:44.454Z,94862.25